Data for 10/14/2010

Time Sea-Level Adjusted Pressure Absolute Pressure Temperature Relative Humidity Dew Point   
(mb) (inHg) (mb) (inHg) (C) (F) (%) (C) (F)
00:05 1026 30.3 855 25.25 11.3 52.3 33 -4.2 24.5
00:10 1026 30.3 855 25.25 11.1 51.9 34 -4.2 24.4
00:15 1026 30.3 855 25.25 10.9 51.6 37 -3 26.5
00:20 1026 30.3 855 25.25 10 49.9 39 -3.4 25.9
00:25 1026 30.3 855 25.25 9.7 49.5 40 -3 26.5
00:30 1026 30.3 855 25.25 9.1 48.4 41 -3.4 25.8
00:35 1026 30.3 855 25.25 9.5 49.1 39 -3.8 25.1
00:40 1026 30.3 855 25.25 9.9 49.7 36 -4.4 24.1
00:45 1026 30.3 855 25.25 10.2 50.4 35 -4.5 23.8
00:50 1026 30.3 855 25.25 10.5 50.9 36 -3.9 24.9
00:55 1026 30.3 855 25.25 10 50.1 37 -4.1 24.6
01:00 1026 30.3 855 25.25 9.8 49.6 38 -4 24.9
01:05 1026 30.3 855 25.25 9.8 49.6 37 -4.1 24.6
01:10 1026 30.3 855 25.25 9.9 49.9 36 -4.3 24.2
01:15 1026 30.3 855 25.25 9.9 49.7 38 -3.9 25
01:20 1026 30.3 855 25.25 9.6 49.2 38 -4 24.9
01:25 1026 30.3 855 25.25 9.4 48.9 38 -4 24.8
01:30 1026 30.3 855 25.25 9.4 49 38 -4 24.8
01:35 1026 30.3 855 25.25 9.4 48.9 38 -4.3 24.3
01:40 1026 30.3 855 25.25 9.8 49.6 37 -4.2 24.4
01:45 1026 30.3 855 25.25 9.5 49.1 39 -3.9 25
01:50 1026 30.3 855 25.25 9.6 49.3 38 -4.2 24.5
01:55 1026 30.3 855 25.25 9.6 49.3 38 -4 24.9
02:00 1026 30.3 855 25.25 9.4 49 38 -4 24.8
02:05 1026 30.3 855 25.25 9.1 48.3 39 -4 24.8
02:10 1026 30.3 855 25.25 8.9 48 40 -3.8 25.1
02:15 1026 30.3 855 25.25 8.5 47.3 43 -3.3 26
02:20 1026 30.3 855 25.25 7.9 46.2 45 -3.4 25.9
02:25 1026 30.3 855 25.25 7.7 45.8 45 -3.6 25.5
02:30 1026 30.3 855 25.25 7.6 45.8 45 -3.6 25.5
02:35 1026 30.3 855 25.25 7.7 45.9 44 -3.7 25.3
02:40 1026 30.3 855 25.25 7.9 46.2 44 -3.6 25.5
02:45 1026 30.3 855 25.25 8.1 46.5 43 -3.8 25.2
02:50 1026 30.3 855 25.25 8.5 47.2 41 -4.1 24.6
02:55 1026 30.3 855 25.25 8.9 48 40 -4 24.7
03:00 1026 30.3 855 25.25 9 48.2 40 -3.9 25
03:05 1026 30.3 855 25.25 8.9 48 40 -3.9 25.1
03:10 1026 30.3 855 25.25 8.9 48 38 -4.5 23.9
03:15 1026 30.3 855 25.25 9.6 49.3 36 -4.7 23.6
03:20 1026 30.3 855 25.25 9.7 49.4 37 -4.4 24
03:25 1026 30.3 855 25.25 9.6 49.3 38 -4.1 24.6
03:30 1026 30.3 855 25.25 9.2 48.5 39 -3.9 24.9
03:35 1026 30.3 855 25.25 9.2 48.5 38 -4.2 24.4
03:40 1026 30.3 855 25.25 9 48.2 41 -3.6 25.4
03:45 1026 30.3 855 25.25 8.6 47.5 41 -3.8 25.1
03:50 1026 30.3 855 25.25 8.6 47.5 40 -4.2 24.4
03:55 1026 30.3 855 25.25 8.6 47.5 42 -3.7 25.4
04:00 1026 30.3 855 25.25 8.2 46.8 42 -3.9 25
04:05 1026 30.3 855 25.25 8.1 46.5 45 -3 26.5
04:10 1026 30.3 855 25.25 7.9 46.3 43 -3.7 25.3
04:15 1026 30.3 855 25.25 8 46.5 45 -3.3 26.1
04:20 1026 30.3 855 25.25 7.6 45.6 46 -3.3 26
04:25 1026 30.3 855 25.25 7.2 44.9 47 -3.4 25.9
04:30 1026 30.3 855 25.25 7.3 45.2 45 -3.8 25.1
04:35 1026 30.3 855 25.25 7.6 45.7 44 -3.9 25
04:40 1026 30.3 855 25.25 7.8 46.1 44 -3.7 25.3
04:45 1026 30.3 855 25.25 7.7 45.9 44 -3.6 25.5
04:50 1026 30.3 855 25.25 7.5 45.5 46 -3.5 25.7
04:55 1026 30.3 855 25.25 7.3 45.2 46 -3.7 25.4
05:00 1026 30.3 855 25.25 7.6 45.8 45 -3.5 25.8
05:05 1026 30.3 855 25.25 8 46.4 44 -3.5 25.7
05:10 1026 30.3 855 25.25 8 46.4 43 -3.8 25.2
05:15 1026 30.3 855 25.25 7.9 46.3 45 -3.2 26.2
05:20 1026 30.3 855 25.25 7.4 45.3 48 -2.9 26.8
05:25 1026 30.3 855 25.25 7.1 44.7 51 -2.5 27.5
05:30 1026 30.3 855 25.25 6.6 43.9 49 -3.3 26
05:35 1026 30.3 855 25.25 6.7 44.1 50 -3 26.5
05:40 1026 30.3 855 25.25 6.7 44 45 -4.4 24.1
05:45 1026 30.3 855 25.25 7.9 46.1 42 -4.3 24.3
05:50 1026 30.3 855 25.25 8 46.3 44 -3.6 25.6
05:55 1026 30.3 855 25.25 7.4 45.2 45 -3.7 25.4
06:00 1026 30.3 855 25.25 7.3 45.1 46 -3.6 25.6
06:05 1026 30.3 855 25.25 7.2 45 47 -3.3 26.1
06:10 1026 30.3 855 25.25 7.5 45.5 45 -3.6 25.5
06:15 1026 30.3 855 25.25 7.8 46 43 -3.9 25
06:20 1026 30.3 855 25.25 7.6 45.6 44 -3.8 25.1
06:25 1026 30.3 855 25.25 7.4 45.4 43 -4.4 24.1
06:30 1026 30.3 855 25.25 7.7 45.8 44 -3.8 25.2
06:35 1026 30.3 855 25.25 7.3 45.2 45 -3.7 25.3
06:40 1026 30.3 855 25.25 7 44.7 47 -3.5 25.8
06:45 1026 30.3 855 25.25 6.8 44.3 46 -3.9 25
06:50 1026 30.3 855 25.25 6.9 44.4 47 -3.6 25.6
06:55 1026 30.3 855 25.25 6.6 43.8 48 -3.7 25.4
07:00 1026 30.3 855 25.25 6.4 43.6 49 -3.5 25.7
07:05 1026 30.3 855 25.25 6.4 43.5 47 -4 24.7
07:10 1026 30.3 855 25.25 6.6 43.9 48 -3.6 25.5
07:15 1026 30.3 855 25.25 6.3 43.3 50 -3.4 25.9
07:20 1026 30.3 855 25.25 6 42.8 50 -3.6 25.6
07:25 1026 30.3 855 25.25 5.8 42.5 51 -3.4 25.8
07:30 1026 30.3 855 25.25 5.8 42.5 49 -4 24.8
07:35 1026 30.3 855 25.25 6.4 43.6 48 -3.8 25.1
07:40 1026 30.3 855 25.25 6.5 43.8 48 -3.8 25.2
07:45 1026 30.3 855 25.25 6.2 43.2 50 -3.5 25.7
07:50 1026 30.3 855 25.25 5.8 42.5 51 -3.4 25.9
07:55 1026 30.3 855 25.25 5.6 42.1 52 -3.4 25.9
08:00 1026 30.3 855 25.25 5.8 42.4 50 -3.7 25.3
08:05 1026 30.3 855 25.25 6.1 43 49 -3.8 25.1
08:10 1026 30.3 855 25.25 6.4 43.5 49 -3.7 25.4
08:15 1026 30.3 855 25.25 6.4 43.5 48 -3.7 25.3
08:20 1026 30.3 855 25.25 6.6 43.9 47 -3.8 25.1
08:25 1026 30.3 855 25.25 6.8 44.3 47 -3.6 25.4
08:30 1026 30.3 855 25.25 7.1 44.7 46 -3.6 25.5
08:35 1026 30.3 855 25.25 7.3 45.1 47 -3.3 26
08:40 1026 30.3 855 25.25 7.4 45.4 46 -3.5 25.6
08:45 1026 30.3 855 25.25 7.8 46.1 46 -3 26.7
08:50 1026 30.3 855 25.25 8.1 46.6 43 -3.6 25.5
08:55 1026 30.3 855 25.25 8.4 47.2 44 -3.1 26.5
09:00 1026 30.3 855 25.25 8.5 47.2 46 -2.6 27.3
09:05 1026 30.3 855 25.25 8.6 47.5 43 -3.2 26.2
09:10 1026 30.3 855 25.25 9 48.1 41 -3.5 25.6
09:15 1026 30.3 855 25.25 9.5 49.2 40 -3.2 26.2
09:20 1026 30.3 855 25.25 10.3 50.6 38 -3.2 26.2
09:25 1026 30.3 855 25.25 10.7 51.3 37 -3.2 26.2
09:30 1026 30.3 855 25.25 11 51.7 38 -2.7 27.2
09:35 1026 30.3 855 25.25 11.5 52.7 37 -2.6 27.3
09:40 1026 30.3 855 25.25 11.6 52.8 38 -2.2 28
09:45 1026 30.3 855 25.25 11.8 53.3 38 -1.9 28.6
09:50 1026 30.3 855 25.25 12.3 54.2 37 -2 28.4
09:55 1026 30.3 855 25.25 12.9 55.1 35 -2.3 27.9
10:00 1026 30.3 855 25.25 13.4 56.1 35 -1.9 28.7
10:05 1026 30.3 855 25.25 13.7 56.7 32 -2.8 27
10:10 1026 30.3 855 25.25 13.9 57.1 30 -3.2 26.3
10:15 1026 30.3 855 25.25 14.5 58.2 29 -3.4 25.8
10:20 1026 30.3 855 25.25 14.9 58.8 29 -2.8 27
10:25 1026 30.3 855 25.25 14.9 58.7 30 -2.3 27.8
10:30 1026 30.3 855 25.25 14.4 57.9 32 -2.2 28.1
10:35 1026 30.3 855 25.25 13.6 56.5 32 -2.7 27.2
10:40 1026 30.3 855 25.25 13 55.4 33 -3 26.7
10:45 1025 30.27 855 25.25 12.9 55.2 33 -2.8 27
10:50 1025 30.27 855 25.25 13 55.4 33 -2.7 27.2
10:55 1025 30.27 855 25.25 14.1 57.3 31 -2.8 27
11:00 1025 30.27 855 25.25 14 57.3 32 -2.5 27.5
11:05 1025 30.27 854 25.22 14.4 57.9 30 -2.9 26.7
11:10 1025 30.27 854 25.22 15.1 59.2 29 -2.5 27.5
11:15 1025 30.27 854 25.22 15.2 59.4 29 -2.6 27.4
11:20 1025 30.27 854 25.22 14.7 58.5 30 -2.7 27.2
11:25 1025 30.27 854 25.22 15.2 59.4 30 -2.3 27.9
11:30 1025 30.27 854 25.22 16.1 60.9 29 -2.1 28.3
11:35 1025 30.27 854 25.22 15.9 60.7 29 -2.2 28.1
11:40 1025 30.27 854 25.22 16 60.8 28 -2.3 27.9
11:45 1025 30.27 854 25.22 15.4 59.8 29 -2.6 27.4
11:50 1025 30.27 854 25.22 15.1 59.2 29 -2.6 27.4
11:55 1025 30.27 854 25.22 15.6 60 29 -2.5 27.5
12:00 1025 30.27 854 25.22 15.2 59.3 29 -2.6 27.3
12:05 1025 30.27 854 25.22 15.5 59.9 27 -3.5 25.7
12:10 1025 30.27 854 25.22 16.8 62.3 24 -3.6 25.4
12:15 1025 30.27 854 25.22 17.3 63.1 25 -2.7 27.1
12:20 1024 30.24 854 25.22 17.1 62.9 24 -3.2 26.2
12:25 1024 30.24 854 25.22 16.8 62.2 25 -3.5 25.7
12:30 1024 30.24 854 25.22 17.6 63.8 24 -3.1 26.4
12:35 1024 30.24 853 25.19 18.6 65.4 22 -3.1 26.4
12:40 1024 30.24 853 25.19 18.4 65.2 23 -2.9 26.7
12:45 1024 30.24 853 25.19 18.6 65.4 22 -3.2 26.2
12:50 1024 30.24 853 25.19 18.9 66 23 -2.4 27.8
12:55 1024 30.24 853 25.19 18.7 65.7 23 -2.8 26.9
13:00 1024 30.24 853 25.19 18.9 66.1 23 -2.8 27
13:05 1024 30.24 853 25.19 19.8 67.6 22 -2.7 27.1
13:10 1024 30.24 853 25.19 20.1 68.1 21 -2.7 27.1
13:15 1024 30.24 853 25.19 20.5 68.9 21 -2.4 27.8
13:20 1023 30.21 853 25.19 20.8 69.5 22 -1.8 28.8
13:25 1023 30.21 853 25.19 20 67.9 22 -2.3 27.8
13:30 1023 30.21 853 25.19 20.4 68.8 21 -2.6 27.3
13:35 1023 30.21 852 25.16 21.4 70.5 19 -3.4 25.9
13:40 1023 30.21 852 25.16 19.9 67.8 23 -1.9 28.7
13:45 1023 30.21 852 25.16 19.1 66.4 23 -2.3 27.8
13:50 1023 30.21 852 25.16 20.1 68.2 21 -2.6 27.3
13:55 1023 30.21 852 25.16 20.4 68.8 21 -2.4 27.6
14:00 1023 30.21 852 25.16 21.3 70.4 20 -2.5 27.5
14:05 1023 30.21 852 25.16 21.6 70.9 18 -3.3 26.1
14:10 1023 30.21 852 25.16 21 69.7 20 -3 26.6
14:15 1023 30.21 852 25.16 20.5 68.9 19 -4 24.8
14:20 1023 30.21 852 25.16 21.2 70.1 18 -3.8 25.1
14:25 1023 30.21 852 25.16 20.7 69.3 19 -3.8 25.2
14:30 1022 30.18 852 25.16 20.9 69.6 16 -5.5 22.2
14:35 1022 30.18 852 25.16 21.5 70.7 17 -4.2 24.4
14:40 1022 30.18 851 25.13 22.3 72.2 15 -5.1 22.8
14:45 1022 30.18 851 25.13 22.6 72.6 17 -3.3 26.1
14:50 1022 30.18 851 25.13 22.5 72.4 15 -4.9 23.1
14:55 1022 30.18 851 25.13 22.9 73.2 15 -4.7 23.6
15:00 1022 30.18 851 25.13 22 71.7 15 -5.4 22.3
15:05 1022 30.18 851 25.13 22.5 72.5 14 -6 21.3
15:10 1022 30.18 851 25.13 22.9 73.2 14 -5.7 21.7
15:15 1022 30.18 851 25.13 23.3 73.9 14 -5.4 22.3
15:20 1022 30.18 851 25.13 23.2 73.7 16 -4.2 24.5
15:25 1022 30.18 851 25.13 23.3 74 15 -4.8 23.4
15:30 1022 30.18 851 25.13 23.6 74.4 14 -5 23
15:35 1021 30.15 851 25.13 23.5 74.4 15 -4.5 23.9
15:40 1021 30.15 851 25.13 23.2 73.7 14 -5.7 21.8
15:45 1021 30.15 851 25.13 24 75.3 13 -5.5 22.1
15:50 1021 30.15 850 25.1 24 75.2 14 -5.4 22.3
15:55 1021 30.15 850 25.1 23.7 74.6 14 -4.8 23.4
16:00 1021 30.15 850 25.1 22.5 72.5 15 -5.4 22.3
16:05 1021 30.15 850 25.1 22.8 73 14 -5.8 21.6
16:10 1021 30.15 850 25.1 23.4 74 15 -4.9 23.1
16:15 1021 30.15 850 25.1 22.9 73.3 14 -5.3 22.4
16:20 1021 30.15 850 25.1 23.1 73.6 15 -5.1 22.8
16:25 1021 30.15 850 25.1 22.7 72.8 15 -5.2 22.6
16:30 1021 30.15 850 25.1 22.4 72.3 15 -5.6 21.8
16:35 1021 30.15 850 25.1 22.4 72.2 15 -5.1 22.9
16:40 1021 30.15 850 25.1 22.7 72.8 14 -5.8 21.5
16:45 1021 30.15 850 25.1 22.9 73.1 15 -5 22.9
16:50 1021 30.15 850 25.1 23.1 73.6 14 -5.6 22
16:55 1021 30.15 850 25.1 23.2 73.7 14 -5.1 22.8
17:00 1020 30.12 850 25.1 22.9 73.2 14 -6.1 20.9
17:05 1020 30.12 850 25.1 22.6 72.6 14 -5.8 21.6
17:10 1020 30.12 850 25.1 22.6 72.7 14 -6 21.2
17:15 1020 30.12 850 25.1 22.8 73 14 -6.1 21
17:20 1020 30.12 849 25.07 22.8 73.1 14 -5.6 21.9
17:25 1020 30.12 849 25.07 23 73.4 14 -5.5 22.1
17:30 1020 30.12 849 25.07 22.9 73.2 14 -5.9 21.4
17:35 1020 30.12 849 25.07 22.9 73.2 14 -5.6 21.9
17:40 1020 30.12 849 25.07 23.2 73.8 14 -5.8 21.6
17:45 1020 30.12 849 25.07 23.4 74.1 14 -5.3 22.5
17:50 1020 30.12 849 25.07 22.9 73.1 15 -4.7 23.6
17:55 1020 30.12 849 25.07 22.8 73 14 -6.1 21.1
18:00 1020 30.12 849 25.07 22.9 73.2 14 -6 21.2
18:05 1020 30.12 849 25.07 22.9 73.2 14 -5.7 21.7
18:10 1020 30.12 849 25.07 22.7 72.8 14 -5.7 21.8
18:15 1020 30.12 849 25.07 22.5 72.4 15 -5.2 22.7
18:20 1020 30.12 849 25.07 22.3 72.1 17 -3.5 25.6
18:25 1020 30.12 849 25.07 22.1 71.8 23 0.3 32.5
18:30 1020 30.12 849 25.07 20.2 68.3 28 1.1 34
18:35 1020 30.12 849 25.07 18.9 66 32 1.9 35.5
18:40 1020 30.12 849 25.07 17.7 63.9 33 1.2 34.2
18:45 1020 30.12 849 25.07 16.9 62.4 34 0.9 33.6
18:50 1020 30.12 849 25.07 16.4 61.5 33 0 32
18:55 1020 30.12 849 25.07 16.1 60.9 38 1.7 35.1
19:00 1020 30.12 849 25.07 15.7 60.2 33 -0.3 31.4
19:05 1020 30.12 849 25.07 15.5 59.9 36 0.5 33
19:10 1020 30.12 849 25.07 15.4 59.7 35 -0 32
19:15 1020 30.12 849 25.07 15 59 36 0.1 32.2
19:20 1020 30.12 849 25.07 14.6 58.3 38 0.7 33.2
19:25 1020 30.12 849 25.07 14.3 57.8 36 -0.4 31.3
19:30 1020 30.12 849 25.07 14.3 57.7 37 -0.1 31.8
19:35 1020 30.12 849 25.07 14.2 57.5 35 -0.8 30.5
19:40 1020 30.12 849 25.07 14.1 57.5 42 1.5 34.7
19:45 1020 30.12 849 25.07 13.9 56.9 38 0 32.1
19:50 1020 30.12 849 25.07 13.6 56.5 43 1.3 34.3
19:55 1020 30.12 849 25.07 13.6 56.5 39 0.1 32.1
20:00 1020 30.12 849 25.07 13.6 56.5 39 -0.2 31.7
20:05 1020 30.12 849 25.07 13.1 55.5 40 0 32
20:10 1020 30.12 849 25.07 12.6 54.6 41 -0.4 31.2
20:15 1020 30.12 849 25.07 12.2 54 41 -0.7 30.8
20:20 1020 30.12 849 25.07 12.4 54.2 38 -1.3 29.6
20:25 1020 30.12 849 25.07 12.5 54.5 37 -1.8 28.8
20:30 1020 30.12 849 25.07 13 55.4 33 -2.7 27.1
20:35 1020 30.12 849 25.07 13 55.5 33 -2.7 27.2
20:40 1020 30.12 849 25.07 13.4 56.1 32 -3 26.5
20:45 1020 30.12 849 25.07 14.1 57.4 30 -3.2 26.3
20:50 1020 30.12 849 25.07 13.9 57.1 29 -3.8 25.2
20:55 1020 30.12 849 25.07 14.4 57.8 29 -3.2 26.2
21:00 1020 30.12 849 25.07 14.2 57.5 28 -4 24.8
21:05 1020 30.12 849 25.07 14.8 58.6 27 -3.9 24.9
21:10 1020 30.12 849 25.07 15 59 26 -4 24.8
21:15 1020 30.12 849 25.07 15.1 59.1 26 -4.2 24.4
21:20 1020 30.12 849 25.07 14.7 58.5 27 -3.9 24.9
21:25 1020 30.12 849 25.07 14.5 58.1 27 -4.4 24.1
21:30 1020 30.12 849 25.07 14.9 58.8 25 -4.6 23.6
21:35 1020 30.12 849 25.07 14.8 58.6 26 -4.4 24.2
21:40 1020 30.12 849 25.07 14.5 58.1 27 -4.3 24.3
21:45 1020 30.12 849 25.07 14 57.2 29 -3.8 25.1
21:50 1020 30.12 849 25.07 13.6 56.5 28 -4.3 24.3
21:55 1020 30.12 849 25.07 13.6 56.5 29 -3.9 24.9
22:00 1020 30.12 849 25.07 13.8 56.8 28 -4.5 23.8
22:05 1020 30.12 849 25.07 14.4 57.9 28 -3.7 25.4
22:10 1020 30.12 849 25.07 13.9 57.1 27 -4.9 23.1
22:15 1020 30.12 849 25.07 14.3 57.8 24 -6 21.2
22:20 1020 30.12 849 25.07 15 58.9 27 -3.8 25.1
22:25 1020 30.12 849 25.07 14.4 57.9 26 -4.9 23.2
22:30 1020 30.12 849 25.07 14 57.3 29 -3.9 25.1
22:35 1020 30.12 849 25.07 13.9 57 27 -4.8 23.4
22:40 1020 30.12 849 25.07 13.6 56.4 28 -4.7 23.6
22:45 1020 30.12 849 25.07 13.6 56.5 29 -4.1 24.6
22:50 1020 30.12 849 25.07 13.5 56.3 27 -5.1 22.8
22:55 1020 30.12 849 25.07 13.6 56.5 28 -4.5 23.8
23:00 1020 30.12 849 25.07 13.9 57 26 -5.4 22.2
23:05 1020 30.12 849 25.07 13.8 56.8 29 -3.8 25.2
23:10 1020 30.12 849 25.07 13 55.4 28 -5.1 22.9
23:15 1020 30.12 849 25.07 13 55.4 28 -4.9 23.2
23:20 1020 30.12 849 25.07 12.6 54.7 31 -4 24.8
23:25 1020 30.12 849 25.07 11.9 53.4 31 -4.5 23.9
23:30 1020 30.12 849 25.07 11.7 53 30 -5.2 22.6
23:35 1020 30.12 849 25.07 12.4 54.3 32 -4 24.9
23:40 1020 30.12 849 25.07 12.2 53.9 29 -5.2 22.6
23:45 1020 30.12 849 25.07 12.7 54.9 27 -5.6 21.9
23:50 1020 30.12 849 25.07 13.2 55.7 28 -5.1 22.8
23:55 1020 30.12 849 25.07 12.7 54.8 31 -3.9 24.9
24:00 1020 30.12 849 25.07 11.7 53.1 30 -5.5 22.1